createdAt,value
2019-03-13T00:00:45.545Z,9.30
2019-03-13T00:03:14.774Z,9.30
2019-03-13T00:05:43.211Z,9.30
2019-03-13T00:08:11.667Z,9.20
2019-03-13T00:10:40.375Z,9.10
2019-03-13T00:13:08.792Z,9.10
2019-03-13T00:15:37.176Z,9.10
2019-03-13T00:18:05.644Z,9.00
2019-03-13T00:20:34.277Z,9.10
2019-03-13T00:23:02.712Z,9.00
2019-03-13T00:25:31.088Z,9.00
2019-03-13T00:27:59.489Z,9.00
2019-03-13T00:30:27.901Z,8.90
2019-03-13T00:32:56.277Z,8.90
2019-03-13T00:35:24.679Z,8.90
2019-03-13T00:37:53.073Z,8.90
2019-03-13T00:40:21.485Z,8.80
2019-03-13T00:42:49.850Z,8.80
2019-03-13T00:45:18.257Z,8.70
2019-03-13T00:47:46.639Z,8.70
2019-03-13T00:50:34.595Z,8.70
2019-03-13T00:53:02.983Z,8.70
2019-03-13T00:55:31.378Z,8.60
2019-03-13T00:57:59.759Z,8.70
2019-03-13T01:00:45.820Z,8.60
2019-03-13T01:03:34.118Z,8.50
2019-03-13T01:06:06.612Z,8.50
2019-03-13T01:08:35.104Z,8.50
2019-03-13T01:11:03.550Z,8.50
2019-03-13T01:13:31.935Z,8.50
2019-03-13T01:16:00.324Z,8.40
2019-03-13T01:18:29.011Z,8.30
2019-03-13T01:20:57.402Z,8.30
2019-03-13T01:23:25.783Z,8.30
2019-03-13T01:25:54.189Z,8.30
2019-03-13T01:28:22.563Z,8.20
2019-03-13T01:31:09.180Z,8.10
2019-03-13T01:33:37.560Z,8.10
2019-03-13T01:36:07.224Z,8.00
2019-03-13T01:38:35.600Z,8.00
2019-03-13T01:41:04.041Z,7.90
2019-03-13T01:43:32.423Z,7.90
2019-03-13T01:46:00.812Z,8.00
2019-03-13T01:48:29.230Z,7.90
2019-03-13T01:50:57.917Z,7.90
2019-03-13T01:53:26.307Z,8.00
2019-03-13T01:55:54.687Z,7.90
2019-03-13T01:58:23.064Z,7.90
2019-03-13T02:00:51.469Z,7.80
2019-03-13T02:03:19.837Z,7.70
2019-03-13T02:05:48.224Z,7.70
2019-03-13T02:08:16.609Z,7.80
2019-03-13T02:10:45.018Z,7.70
2019-03-13T02:13:13.396Z,7.70
2019-03-13T02:15:41.788Z,7.70
2019-03-13T02:18:10.168Z,7.70
2019-03-13T02:20:39.131Z,7.60
2019-03-13T02:23:07.516Z,7.50
2019-03-13T02:25:35.901Z,7.50
2019-03-13T02:28:04.651Z,7.40
2019-03-13T02:30:33.048Z,7.40
2019-03-13T02:33:01.427Z,7.50
2019-03-13T02:35:29.813Z,7.50
2019-03-13T02:37:58.204Z,7.50
2019-03-13T02:40:26.588Z,7.50
2019-03-13T02:42:54.989Z,7.40
2019-03-13T02:45:23.347Z,7.40
2019-03-13T02:47:51.741Z,7.40
2019-03-13T02:50:20.125Z,7.50
2019-03-13T02:52:48.507Z,7.50
2019-03-13T02:55:16.988Z,7.50
2019-03-13T02:57:45.343Z,7.50
2019-03-13T03:00:20.170Z,7.50
2019-03-13T03:02:53.018Z,7.50
2019-03-13T03:05:21.406Z,7.50
2019-03-13T03:07:49.792Z,7.40
2019-03-13T03:10:18.169Z,7.30
2019-03-13T03:12:46.631Z,7.40
2019-03-13T03:15:18.863Z,7.40
2019-03-13T03:17:47.256Z,7.40
2019-03-13T03:20:18.076Z,7.40
2019-03-13T03:22:46.461Z,7.40
2019-03-13T03:25:16.509Z,7.40
2019-03-13T03:27:44.895Z,7.40
2019-03-13T03:30:23.555Z,7.40
2019-03-13T03:32:52.004Z,7.30
2019-03-13T03:35:20.393Z,7.30
2019-03-13T03:37:48.839Z,7.30
2019-03-13T03:40:23.070Z,7.30
2019-03-13T03:42:51.077Z,7.30
2019-03-13T03:45:19.535Z,7.20
2019-03-13T03:47:48.112Z,7.20
2019-03-13T03:50:17.435Z,7.20
2019-03-13T03:52:46.105Z,7.20
2019-03-13T03:55:16.672Z,7.20
2019-03-13T03:57:45.214Z,7.20
2019-03-13T04:00:18.597Z,7.20
2019-03-13T04:02:46.979Z,7.20
2019-03-13T04:05:15.802Z,7.10
2019-03-13T04:07:44.533Z,7.20
2019-03-13T04:10:15.078Z,7.20
2019-03-13T04:12:43.456Z,7.10
2019-03-13T04:15:13.177Z,7.10
2019-03-13T04:17:41.559Z,7.10
2019-03-13T04:20:14.385Z,7.20
2019-03-13T04:22:42.744Z,7.10
2019-03-13T04:25:22.898Z,7.20
2019-03-13T04:27:51.274Z,7.10
2019-03-13T04:30:19.667Z,7.10
2019-03-13T04:32:48.036Z,7.00
2019-03-13T04:35:16.424Z,7.00
2019-03-13T04:37:44.820Z,7.00
2019-03-13T04:40:14.254Z,7.00
2019-03-13T04:42:42.684Z,6.90
2019-03-13T04:45:11.764Z,6.90
2019-03-13T04:47:40.406Z,6.80
2019-03-13T04:50:13.752Z,6.80
2019-03-13T04:52:42.126Z,6.80
2019-03-13T04:55:11.944Z,6.70
2019-03-13T04:57:40.322Z,6.70
2019-03-13T05:00:14.122Z,6.70
2019-03-13T05:02:42.564Z,6.70
2019-03-13T05:05:16.794Z,6.70
2019-03-13T05:07:45.178Z,6.70
2019-03-13T05:10:13.556Z,6.70
2019-03-13T05:12:41.930Z,6.60
2019-03-13T05:15:10.315Z,6.60
2019-03-13T05:17:38.696Z,6.60
2019-03-13T05:20:07.086Z,6.60
2019-03-13T05:22:35.464Z,6.60
2019-03-13T05:25:04.889Z,6.60
2019-03-13T05:27:33.281Z,6.60
2019-03-13T05:30:01.705Z,6.60
2019-03-13T05:32:30.093Z,6.50
2019-03-13T05:34:58.515Z,6.50
2019-03-13T05:37:26.952Z,6.50
2019-03-13T05:39:55.340Z,6.50
2019-03-13T05:42:23.728Z,6.50
2019-03-13T05:44:52.115Z,6.50
2019-03-13T05:47:20.508Z,6.50
2019-03-13T05:49:48.904Z,6.50
2019-03-13T05:52:17.320Z,6.50
2019-03-13T05:54:45.933Z,6.50
2019-03-13T05:57:14.317Z,6.50
2019-03-13T05:59:42.684Z,6.50
2019-03-13T06:02:11.077Z,6.50
2019-03-13T06:04:39.472Z,6.50
2019-03-13T06:07:07.875Z,6.50
2019-03-13T06:09:36.270Z,6.50
2019-03-13T06:12:04.664Z,6.60
2019-03-13T06:14:33.048Z,6.50
2019-03-13T06:17:01.525Z,6.50
2019-03-13T06:19:29.902Z,6.50
2019-03-13T06:21:58.293Z,6.60
2019-03-13T06:24:26.765Z,6.60
2019-03-13T06:26:55.148Z,6.60
2019-03-13T06:29:23.530Z,6.60
2019-03-13T06:31:51.916Z,6.70
2019-03-13T06:34:20.301Z,6.80
2019-03-13T06:36:48.695Z,6.90
2019-03-13T06:39:17.080Z,7.10
2019-03-13T06:41:45.480Z,7.10
2019-03-13T06:44:13.860Z,7.30
2019-03-13T06:46:42.256Z,7.40
2019-03-13T06:49:10.642Z,7.40
2019-03-13T06:51:39.032Z,7.40
2019-03-13T06:54:07.420Z,7.40
2019-03-13T06:56:35.808Z,7.40
2019-03-13T06:59:05.829Z,7.40
2019-03-13T07:01:35.856Z,7.40
2019-03-13T07:04:24.088Z,7.40
2019-03-13T07:06:54.116Z,7.40
2019-03-13T07:09:32.861Z,7.40
2019-03-13T07:12:19.525Z,7.30
2019-03-13T07:14:49.550Z,7.40
2019-03-13T07:17:35.532Z,7.40
2019-03-13T07:20:24.796Z,7.40
2019-03-13T07:22:57.807Z,7.50
2019-03-13T07:25:30.735Z,7.50
2019-03-13T07:28:00.765Z,7.50
2019-03-13T07:30:30.784Z,7.70
2019-03-13T07:33:03.767Z,7.90
2019-03-13T07:35:33.779Z,7.90
2019-03-13T07:38:15.551Z,8.00
2019-03-13T07:40:53.130Z,8.10
2019-03-13T07:43:38.070Z,8.00
2019-03-13T07:46:08.083Z,8.10
2019-03-13T07:48:38.105Z,8.20
2019-03-13T07:51:10.580Z,8.40
2019-03-13T07:53:57.001Z,8.40
2019-03-13T07:56:36.090Z,8.30
2019-03-13T07:59:06.126Z,8.30
2019-03-13T08:01:36.142Z,8.30
2019-03-13T08:04:08.907Z,8.30
2019-03-13T08:06:44.975Z,8.30
2019-03-13T08:09:18.018Z,8.30
2019-03-13T08:11:48.037Z,8.20
2019-03-13T08:14:18.138Z,8.20
2019-03-13T08:17:04.238Z,8.10
2019-03-13T08:19:50.383Z,8.20
2019-03-13T08:22:26.468Z,8.00
2019-03-13T08:25:14.350Z,8.10
2019-03-13T08:27:50.176Z,8.10
2019-03-13T08:30:26.302Z,8.10
2019-03-13T08:33:08.437Z,8.20
2019-03-13T08:35:47.446Z,8.20
2019-03-13T08:38:17.478Z,8.30
2019-03-13T08:40:47.496Z,8.40
2019-03-13T08:43:23.251Z,8.50
2019-03-13T08:46:11.408Z,8.50
2019-03-13T08:48:47.113Z,8.60
2019-03-13T08:51:31.941Z,8.80
2019-03-13T08:54:07.816Z,9.00
2019-03-13T08:56:38.096Z,9.20
2019-03-13T08:59:14.078Z,9.30
2019-03-13T09:01:44.098Z,9.40
2019-03-13T09:04:16.926Z,9.50
2019-03-13T09:06:46.933Z,9.50
2019-03-13T09:09:16.977Z,9.50
2019-03-13T09:12:03.295Z,9.60
2019-03-13T09:14:33.340Z,9.50
2019-03-13T09:17:06.306Z,9.50
2019-03-13T09:19:39.115Z,9.70
2019-03-13T09:22:12.110Z,9.90
2019-03-13T09:24:42.150Z,10.30
2019-03-13T09:27:28.173Z,10.30
2019-03-13T09:30:10.326Z,10.50
2019-03-13T09:32:43.300Z,10.40
2019-03-13T09:35:13.358Z,10.30
2019-03-13T09:37:43.381Z,10.30
2019-03-13T09:40:19.261Z,10.40
2019-03-13T09:43:01.388Z,10.50
2019-03-13T09:45:31.433Z,10.40
2019-03-13T09:48:16.169Z,10.40
2019-03-13T09:50:46.203Z,10.50
2019-03-13T09:53:16.236Z,10.50
2019-03-13T09:56:04.255Z,10.50
2019-03-13T09:58:36.784Z,10.70
2019-03-13T10:01:22.904Z,10.90
2019-03-13T10:03:52.918Z,11.10
2019-03-13T10:06:39.199Z,11.20
2019-03-13T10:09:15.796Z,11.40
2019-03-13T10:11:45.833Z,11.60
2019-03-13T10:14:15.858Z,11.60
2019-03-13T10:16:48.291Z,11.80
2019-03-13T10:19:20.848Z,12.10
2019-03-13T10:21:50.889Z,12.30
2019-03-13T10:24:20.908Z,12.40
2019-03-13T10:26:50.958Z,12.60
2019-03-13T10:29:37.181Z,12.80
2019-03-13T10:32:09.955Z,13.10
2019-03-13T10:34:42.437Z,12.90
2019-03-13T10:37:12.470Z,12.80
2019-03-13T10:39:57.116Z,13.00
2019-03-13T10:42:29.884Z,13.00
2019-03-13T10:45:08.985Z,13.10
2019-03-13T10:47:48.160Z,12.80
2019-03-13T10:50:24.068Z,12.90
2019-03-13T10:53:08.905Z,12.80
2019-03-13T10:55:41.581Z,12.90
2019-03-13T10:58:23.820Z,13.10
2019-03-13T11:01:05.753Z,13.20
2019-03-13T11:03:35.768Z,13.30
2019-03-13T11:06:08.891Z,13.50
2019-03-13T11:08:44.448Z,13.20
2019-03-13T11:11:14.482Z,12.90
2019-03-13T11:13:47.166Z,12.90
2019-03-13T11:16:22.913Z,13.00
2019-03-13T11:18:52.943Z,13.20
2019-03-13T11:21:25.689Z,13.20
2019-03-13T11:24:04.453Z,13.20
2019-03-13T11:26:52.117Z,13.30
2019-03-13T11:29:28.817Z,13.40
2019-03-13T11:32:07.897Z,13.40
2019-03-13T11:34:55.980Z,13.40
2019-03-13T11:37:42.473Z,13.50
2019-03-13T11:40:20.709Z,13.70
2019-03-13T11:42:56.851Z,13.70
2019-03-13T11:45:33.172Z,14.00
2019-03-13T11:48:15.340Z,14.20
2019-03-13T11:50:48.331Z,14.30
2019-03-13T11:53:18.390Z,14.40
2019-03-13T11:55:51.184Z,14.50
2019-03-13T11:58:30.126Z,14.60
2019-03-13T12:01:17.464Z,14.50
2019-03-13T12:03:52.661Z,14.40
2019-03-13T12:06:25.623Z,14.90
2019-03-13T12:09:01.364Z,14.90
2019-03-13T12:11:50.608Z,14.60
2019-03-13T12:14:26.125Z,14.40
2019-03-13T12:17:05.092Z,14.10
2019-03-13T12:19:35.147Z,14.20
2019-03-13T12:22:14.115Z,14.10
2019-03-13T12:24:49.975Z,14.00
2019-03-13T12:27:22.823Z,13.90
2019-03-13T12:29:58.880Z,13.90
2019-03-13T12:32:34.728Z,13.80
2019-03-13T12:35:13.961Z,13.80
2019-03-13T12:37:50.109Z,13.70
2019-03-13T12:42:57.936Z,13.60
2019-03-13T12:45:39.914Z,13.60
2019-03-13T12:48:16.898Z,13.40
2019-03-13T12:50:44.342Z,13.50
2019-03-13T12:53:19.936Z,13.50
2019-03-13T12:55:49.979Z,13.30
2019-03-13T12:58:20.020Z,13.20
2019-03-13T13:00:52.772Z,13.20
2019-03-13T13:03:40.693Z,13.10
2019-03-13T13:06:16.684Z,13.10
2019-03-13T13:08:49.408Z,13.00
2019-03-13T13:11:28.660Z,12.90
2019-03-13T13:14:04.676Z,13.10
2019-03-13T13:16:37.431Z,12.90
2019-03-13T13:19:06.060Z,13.10
2019-03-13T13:21:34.452Z,13.00
2019-03-13T13:24:02.864Z,12.90
2019-03-13T13:26:31.260Z,13.00
2019-03-13T13:28:59.660Z,13.00
2019-03-13T13:31:28.055Z,13.00
2019-03-13T13:33:56.527Z,12.90
2019-03-13T13:36:26.867Z,12.70
2019-03-13T13:38:55.033Z,12.70
2019-03-13T13:41:23.416Z,12.40
2019-03-13T13:43:51.803Z,12.70
2019-03-13T13:46:23.036Z,12.80
2019-03-13T13:48:52.959Z,12.70
2019-03-13T13:51:21.349Z,12.60
2019-03-13T13:53:49.739Z,12.70
2019-03-13T13:56:18.149Z,12.60
2019-03-13T13:58:46.563Z,12.40
2019-03-13T14:01:14.937Z,12.50
2019-03-13T14:03:43.324Z,12.50
2019-03-13T14:06:11.725Z,12.60
2019-03-13T14:08:40.136Z,12.60
2019-03-13T14:11:08.564Z,12.70
2019-03-13T14:13:36.953Z,12.80
2019-03-13T14:16:05.348Z,12.60
2019-03-13T14:18:33.754Z,12.60
2019-03-13T14:21:02.148Z,12.40
2019-03-13T14:23:30.532Z,12.50
2019-03-13T14:25:58.941Z,12.40
2019-03-13T14:28:27.329Z,12.50
2019-03-13T14:30:55.744Z,12.40
2019-03-13T14:33:24.128Z,12.40
2019-03-13T14:35:52.548Z,12.40
2019-03-13T14:38:21.144Z,12.30
2019-03-13T14:40:49.540Z,12.30
2019-03-13T14:43:18.169Z,12.10
2019-03-13T14:45:46.638Z,11.90
2019-03-13T14:48:15.043Z,11.90
2019-03-13T14:50:43.440Z,11.80
2019-03-13T14:53:11.828Z,11.90
2019-03-13T14:55:40.226Z,11.80
2019-03-13T14:58:08.603Z,11.70
2019-03-13T15:00:37.025Z,11.60
2019-03-13T15:03:05.463Z,11.60
2019-03-13T15:05:33.872Z,11.60
2019-03-13T15:08:02.265Z,11.60
2019-03-13T15:10:30.667Z,11.60
2019-03-13T15:12:59.058Z,11.60
2019-03-13T15:15:27.463Z,11.70
2019-03-13T15:17:55.853Z,11.80
2019-03-13T15:20:25.591Z,11.90
2019-03-13T15:22:54.041Z,11.80
2019-03-13T15:25:22.540Z,11.80
2019-03-13T15:27:50.964Z,11.90
2019-03-13T15:30:23.910Z,11.80
2019-03-13T15:32:52.374Z,11.90
2019-03-13T15:35:20.990Z,11.90
2019-03-13T15:37:49.393Z,11.70
2019-03-13T15:40:18.722Z,11.80
2019-03-13T15:42:48.073Z,11.70
2019-03-13T15:45:21.407Z,11.50
2019-03-13T15:47:49.803Z,11.70
2019-03-13T15:50:18.196Z,11.80
2019-03-13T15:52:46.609Z,11.80
2019-03-13T15:55:16.427Z,11.90
2019-03-13T15:57:44.824Z,11.80
2019-03-13T16:00:18.370Z,11.80
2019-03-13T16:02:46.764Z,11.80
2019-03-13T16:05:15.161Z,11.90
2019-03-13T16:07:43.636Z,11.90
2019-03-13T16:10:16.532Z,11.90
2019-03-13T16:12:44.930Z,11.70
2019-03-13T16:15:22.502Z,11.60
2019-03-13T16:17:50.908Z,11.60
2019-03-13T16:20:19.739Z,11.60
2019-03-13T16:22:55.424Z,11.50
2019-03-13T16:25:23.800Z,11.60
2019-03-13T16:27:52.209Z,11.60
2019-03-13T16:30:32.040Z,11.60
2019-03-13T16:33:00.445Z,11.60
2019-03-13T16:35:28.826Z,11.60
2019-03-13T16:37:57.219Z,11.60
2019-03-13T16:40:25.614Z,11.50
2019-03-13T16:42:53.994Z,11.40
2019-03-13T16:45:23.008Z,11.40
2019-03-13T16:47:51.427Z,11.10
2019-03-13T16:50:22.155Z,11.10
2019-03-13T16:52:50.646Z,11.00
2019-03-13T16:55:20.183Z,10.90
2019-03-13T16:57:48.553Z,10.90
2019-03-13T17:00:27.876Z,10.90
2019-03-13T17:02:56.451Z,10.90
2019-03-13T17:05:25.007Z,10.90
2019-03-13T17:07:53.481Z,10.90
2019-03-13T17:10:28.901Z,10.90
2019-03-13T17:12:57.415Z,10.80
2019-03-13T17:15:26.116Z,10.70
2019-03-13T17:17:54.780Z,10.80
2019-03-13T17:20:37.612Z,10.70
2019-03-13T17:23:06.015Z,10.70
2019-03-13T17:25:34.694Z,10.60
2019-03-13T17:28:03.100Z,10.50
2019-03-13T17:30:32.343Z,10.50
2019-03-13T17:33:01.079Z,10.30
2019-03-13T17:35:29.469Z,10.10
2019-03-13T17:37:57.852Z,10.10
2019-03-13T17:40:28.554Z,10.10
2019-03-13T17:42:56.946Z,9.90
2019-03-13T17:45:25.588Z,9.80
2019-03-13T17:47:54.254Z,9.80
2019-03-13T17:50:26.223Z,9.60
2019-03-13T17:52:54.621Z,9.70
2019-03-13T17:55:24.900Z,9.70
2019-03-13T17:57:53.469Z,9.60
2019-03-13T18:00:36.858Z,9.50
2019-03-13T18:03:05.627Z,9.40
2019-03-13T18:05:33.994Z,9.10
2019-03-13T18:08:04.020Z,9.10
2019-03-13T18:10:32.413Z,8.90
2019-03-13T18:13:00.917Z,8.80
2019-03-13T18:15:29.322Z,8.80
2019-03-13T18:17:57.727Z,8.90
2019-03-13T18:20:26.174Z,8.60
2019-03-13T18:22:54.571Z,8.60
2019-03-13T18:25:23.054Z,8.50
2019-03-13T18:27:51.449Z,8.30
2019-03-13T18:30:24.189Z,8.30
2019-03-13T18:32:52.567Z,8.00
2019-03-13T18:35:21.208Z,8.00
2019-03-13T18:37:49.585Z,8.00
2019-03-13T18:40:19.423Z,8.00
2019-03-13T18:42:47.799Z,7.90
2019-03-13T18:45:24.176Z,7.80
2019-03-13T18:47:53.085Z,7.80
2019-03-13T18:50:21.644Z,7.70
2019-03-13T18:52:50.110Z,7.60
2019-03-13T18:55:20.629Z,7.50
2019-03-13T18:57:50.751Z,7.60
2019-03-13T19:00:21.604Z,7.50
2019-03-13T19:02:50.104Z,7.50
2019-03-13T19:05:18.500Z,7.50
2019-03-13T19:07:46.937Z,7.50
2019-03-13T19:10:20.335Z,7.50
2019-03-13T19:12:48.819Z,7.50
2019-03-13T19:15:19.605Z,7.50
2019-03-13T19:17:48.129Z,7.60
2019-03-13T19:20:19.076Z,7.60
2019-03-13T19:22:47.456Z,7.50
2019-03-13T19:25:16.329Z,7.60
2019-03-13T19:27:44.906Z,7.70
2019-03-13T19:30:28.299Z,7.70
2019-03-13T19:32:56.822Z,7.70
2019-03-13T19:35:25.213Z,7.70
2019-03-13T19:37:54.432Z,7.70
2019-03-13T19:40:23.124Z,7.70
2019-03-13T19:42:51.588Z,7.70
2019-03-13T19:45:31.616Z,7.70
2019-03-13T19:48:01.543Z,7.70
2019-03-13T19:50:30.235Z,7.80
2019-03-13T19:52:58.617Z,7.80
2019-03-13T19:55:27.013Z,7.80
2019-03-13T19:57:57.115Z,7.70
2019-03-13T20:00:26.058Z,7.60
2019-03-13T20:03:00.809Z,7.60
2019-03-13T20:05:29.452Z,7.70
2019-03-13T20:07:57.833Z,7.60
2019-03-13T20:10:27.478Z,7.50
2019-03-13T20:12:56.066Z,7.50
2019-03-13T20:15:26.324Z,7.50
2019-03-13T20:17:54.705Z,7.60
2019-03-13T20:20:23.829Z,7.50
2019-03-13T20:23:06.525Z,7.50
2019-03-13T20:25:34.993Z,7.70
2019-03-13T20:28:03.444Z,7.70
2019-03-13T20:30:31.992Z,7.70
2019-03-13T20:33:00.462Z,7.80
2019-03-13T20:35:28.836Z,7.60
2019-03-13T20:37:57.227Z,7.60
2019-03-13T20:40:26.922Z,7.60
2019-03-13T20:42:55.315Z,7.60
2019-03-13T20:45:28.751Z,7.50
2019-03-13T20:47:57.479Z,7.60
2019-03-13T20:50:36.025Z,7.60
2019-03-13T20:52:56.064Z,7.60
2019-03-13T20:55:24.680Z,7.70
2019-03-13T20:57:53.065Z,7.60
2019-03-13T21:00:28.180Z,7.60
2019-03-13T21:02:57.321Z,7.70
2019-03-13T21:05:26.072Z,7.60
2019-03-13T21:07:54.814Z,7.60
2019-03-13T21:10:23.433Z,7.60
2019-03-13T21:12:51.899Z,7.60
2019-03-13T21:15:24.988Z,7.60
2019-03-13T21:17:53.554Z,7.50
2019-03-13T21:20:22.190Z,7.50
2019-03-13T21:22:50.569Z,7.50
2019-03-13T21:25:25.943Z,7.40
2019-03-13T21:27:54.413Z,7.40
2019-03-13T21:30:30.169Z,7.40
2019-03-13T21:32:58.644Z,7.40
2019-03-13T21:35:27.132Z,7.40
2019-03-13T21:37:55.508Z,7.40
2019-03-13T21:40:28.582Z,7.30
2019-03-13T21:42:57.202Z,7.30
2019-03-13T21:45:25.674Z,7.30
2019-03-13T21:47:54.135Z,7.30
2019-03-13T21:50:22.976Z,7.30
2019-03-13T21:52:51.390Z,7.20
2019-03-13T21:55:20.165Z,7.20
2019-03-13T21:57:51.567Z,7.20
2019-03-13T22:00:27.981Z,7.10
2019-03-13T22:02:56.362Z,7.10
2019-03-13T22:05:26.590Z,7.00
2019-03-13T22:07:54.975Z,7.00
2019-03-13T22:10:23.435Z,7.00
2019-03-13T22:12:51.993Z,7.00
2019-03-13T22:15:23.861Z,7.00
2019-03-13T22:17:52.338Z,7.00
2019-03-13T22:20:20.884Z,6.90
2019-03-13T22:22:49.450Z,6.90
2019-03-13T22:25:19.187Z,6.80
2019-03-13T22:27:47.597Z,6.80
2019-03-13T22:30:23.411Z,6.70
2019-03-13T22:32:52.458Z,6.70
2019-03-13T22:35:20.842Z,6.60
2019-03-13T22:37:49.234Z,6.60
2019-03-13T22:40:18.164Z,6.60
2019-03-13T22:42:46.803Z,6.60
2019-03-13T22:45:18.362Z,6.50
2019-03-13T22:47:46.743Z,6.50
2019-03-13T22:50:23.524Z,6.50
2019-03-13T22:52:52.044Z,6.50
2019-03-13T22:55:20.459Z,6.50
2019-03-13T22:57:48.841Z,6.50
2019-03-13T23:00:47.106Z,6.50
2019-03-13T23:03:16.347Z,6.50
2019-03-13T23:05:44.801Z,6.50
2019-03-13T23:08:13.188Z,6.50
2019-03-13T23:10:41.588Z,6.40
2019-03-13T23:13:09.992Z,6.40
2019-03-13T23:15:38.401Z,6.40
2019-03-13T23:18:06.800Z,6.50
2019-03-13T23:20:35.210Z,6.40
2019-03-13T23:23:03.600Z,6.50
2019-03-13T23:25:32.005Z,6.50
2019-03-13T23:28:00.503Z,6.50
2019-03-13T23:30:28.888Z,6.50
2019-03-13T23:32:57.282Z,6.50
2019-03-13T23:35:25.692Z,6.40
2019-03-13T23:37:54.096Z,6.40
2019-03-13T23:40:22.503Z,6.40
2019-03-13T23:42:50.885Z,6.40
2019-03-13T23:45:19.289Z,6.40
2019-03-13T23:47:47.672Z,6.40
2019-03-13T23:50:16.066Z,6.40
2019-03-13T23:52:44.460Z,6.40
2019-03-13T23:55:12.938Z,6.40
2019-03-13T23:57:41.325Z,6.40
